LiveATC.Net - Listen to live air traffic control over the Internet! Contact for advertising information

ICAO: KCHO  IATA: CHO   Airport: Charlottesville-Albemarle Airport
City: Charlottesville   State/Province: Virginia
Country: United States   Continent: North America
KCHO METAR Weather: KCHO 260453Z 34004KT 10SM CLR 02/M02 A3073 RMK AO2 SLP408 T00221022 401331022
KCHO Flight Activity (FlightAware)
KCHO Airport Info   (AirNav) (iFlightPlanner)
KCHO VFR Sectional Chart   (iFlightPlanner) 
KCHO IFR Low Chart   (iFlightPlanner) 
KCHO Ground/Tower
Feed Status: UP   Listeners: 2
Listen right in your browser - requires Flash (in browser, requires Flash)
Click here to listen with your own player (launches your MP3 player)
KCHO Ground/Tower Audio Archives
Charlottesville Ground121.900
Charlottesville Tower124.500


Unauthorized use prohibited. See Terms of Service

Find LiveATC Audio Streams

Airport/ARTCC Code

(e.g., 124.400, 128.75)
Site-wide search

Browse LiveATC Feeds
LiveATC Coverage Map
Top 50 LiveATC Feeds
Bad Weather Areas

Offer a LiveATC Feed
Press Inquiries

LiveATC on iPhone
LiveATC on Android

Windows Phone
Windows 8/10

LiveATC Mobile
(Mobile browser)

ATC Audio Archives
Interesting Recordings

LiveATC Forums

Home Page
Make a Donation
LiveATC Bookstore

Terms of Use
Privacy Policy

ATC/Radar Sites
U.S. ARTCC Freqs
Canadian Air Freqs


FAA Airport Status
Nat'l Airspace Status
Arrival Demand Charts

Server Software By:

Please make a donation to help us keep growing!